sensor_id;sensor_type;location;lat;lon;timestamp;P1;durP1;ratioP1;P2;durP2;ratioP2
14611;SDS011;7392;52.078;11.650;2023-06-22T00:01:49;2.80;;;2.60;;
14611;SDS011;7392;52.078;11.650;2023-06-22T00:04:16;2.90;;;2.70;;
14611;SDS011;7392;52.078;11.650;2023-06-22T00:06:44;2.60;;;2.40;;
14611;SDS011;7392;52.078;11.650;2023-06-22T00:09:12;2.60;;;2.40;;
14611;SDS011;7392;52.078;11.650;2023-06-22T00:11:40;3.00;;;2.80;;
14611;SDS011;7392;52.078;11.650;2023-06-22T00:14:07;2.80;;;2.60;;
14611;SDS011;7392;52.078;11.650;2023-06-22T00:16:36;3.10;;;2.90;;
14611;SDS011;7392;52.078;11.650;2023-06-22T00:19:04;3.20;;;2.90;;
14611;SDS011;7392;52.078;11.650;2023-06-22T00:21:32;2.90;;;2.70;;
14611;SDS011;7392;52.078;11.650;2023-06-22T00:24:00;3.07;;;2.87;;
14611;SDS011;7392;52.078;11.650;2023-06-22T00:26:29;2.87;;;2.67;;
14611;SDS011;7392;52.078;11.650;2023-06-22T00:28:57;3.13;;;2.93;;
14611;SDS011;7392;52.078;11.650;2023-06-22T00:31:24;2.90;;;2.70;;
14611;SDS011;7392;52.078;11.650;2023-06-22T00:33:54;3.65;;;3.35;;
14611;SDS011;7392;52.078;11.650;2023-06-22T00:36:22;3.03;;;2.83;;
14611;SDS011;7392;52.078;11.650;2023-06-22T00:38:51;3.27;;;3.07;;
14611;SDS011;7392;52.078;11.650;2023-06-22T00:41:18;3.43;;;3.23;;
14611;SDS011;7392;52.078;11.650;2023-06-22T00:43:46;3.03;;;2.83;;
14611;SDS011;7392;52.078;11.650;2023-06-22T00:46:14;3.10;;;2.90;;
14611;SDS011;7392;52.078;11.650;2023-06-22T00:48:42;3.00;;;2.80;;
14611;SDS011;7392;52.078;11.650;2023-06-22T00:51:11;3.13;;;2.93;;
14611;SDS011;7392;52.078;11.650;2023-06-22T00:53:39;2.90;;;2.70;;
14611;SDS011;7392;52.078;11.650;2023-06-22T00:56:07;3.10;;;2.90;;
14611;SDS011;7392;52.078;11.650;2023-06-22T00:58:35;3.30;;;3.10;;
14611;SDS011;7392;52.078;11.650;2023-06-22T01:01:03;3.50;;;3.20;;
14611;SDS011;7392;52.078;11.650;2023-06-22T01:03:31;3.13;;;2.93;;
14611;SDS011;7392;52.078;11.650;2023-06-22T01:06:00;3.17;;;2.97;;
14611;SDS011;7392;52.078;11.650;2023-06-22T01:08:39;3.07;;;2.87;;
14611;SDS011;7392;52.078;11.650;2023-06-22T01:11:16;3.40;;;3.20;;
14611;SDS011;7392;52.078;11.650;2023-06-22T01:13:49;3.43;;;3.13;;
14611;SDS011;7392;52.078;11.650;2023-06-22T01:16:23;3.50;;;3.20;;
14611;SDS011;7392;52.078;11.650;2023-06-22T01:18:52;3.33;;;3.13;;
14611;SDS011;7392;52.078;11.650;2023-06-22T01:21:23;3.33;;;3.13;;
14611;SDS011;7392;52.078;11.650;2023-06-22T01:24:01;3.57;;;3.27;;
14611;SDS011;7392;52.078;11.650;2023-06-22T01:26:38;3.77;;;3.47;;
14611;SDS011;7392;52.078;11.650;2023-06-22T01:29:12;3.33;;;3.13;;
14611;SDS011;7392;52.078;11.650;2023-06-22T01:31:41;3.40;;;3.10;;
14611;SDS011;7392;52.078;11.650;2023-06-22T01:34:12;3.33;;;3.13;;
14611;SDS011;7392;52.078;11.650;2023-06-22T01:36:41;3.13;;;2.93;;
14611;SDS011;7392;52.078;11.650;2023-06-22T01:39:10;3.30;;;3.10;;
14611;SDS011;7392;52.078;11.650;2023-06-22T01:41:39;3.70;;;3.40;;
14611;SDS011;7392;52.078;11.650;2023-06-22T01:44:09;4.00;;;3.70;;
14611;SDS011;7392;52.078;11.650;2023-06-22T01:46:40;3.47;;;3.27;;
14611;SDS011;7392;52.078;11.650;2023-06-22T01:49:09;3.40;;;3.10;;
14611;SDS011;7392;52.078;11.650;2023-06-22T01:51:37;3.50;;;3.20;;
14611;SDS011;7392;52.078;11.650;2023-06-22T01:54:05;3.47;;;3.27;;
14611;SDS011;7392;52.078;11.650;2023-06-22T01:56:33;3.40;;;3.10;;
14611;SDS011;7392;52.078;11.650;2023-06-22T01:59:03;3.00;;;2.80;;
14611;SDS011;7392;52.078;11.650;2023-06-22T02:01:39;3.20;;;3.00;;
14611;SDS011;7392;52.078;11.650;2023-06-22T02:04:12;3.00;;;2.80;;
14611;SDS011;7392;52.078;11.650;2023-06-22T02:06:42;3.20;;;3.00;;
14611;SDS011;7392;52.078;11.650;2023-06-22T02:09:14;3.13;;;2.93;;
14611;SDS011;7392;52.078;11.650;2023-06-22T02:11:44;3.00;;;2.80;;
14611;SDS011;7392;52.078;11.650;2023-06-22T02:14:14;3.27;;;3.07;;
14611;SDS011;7392;52.078;11.650;2023-06-22T02:16:46;3.37;;;3.17;;
14611;SDS011;7392;52.078;11.650;2023-06-22T02:19:14;2.80;;;2.60;;
14611;SDS011;7392;52.078;11.650;2023-06-22T02:21:44;3.30;;;3.03;;
14611;SDS011;7392;52.078;11.650;2023-06-22T02:24:12;2.70;;;2.50;;
14611;SDS011;7392;52.078;11.650;2023-06-22T02:26:40;3.10;;;2.90;;
14611;SDS011;7392;52.078;11.650;2023-06-22T02:29:08;3.00;;;2.80;;
14611;SDS011;7392;52.078;11.650;2023-06-22T02:31:36;3.23;;;3.03;;
14611;SDS011;7392;52.078;11.650;2023-06-22T02:34:05;3.23;;;3.03;;
14611;SDS011;7392;52.078;11.650;2023-06-22T02:36:33;3.40;;;3.20;;
14611;SDS011;7392;52.078;11.650;2023-06-22T02:39:00;2.93;;;2.73;;
14611;SDS011;7392;52.078;11.650;2023-06-22T02:41:30;2.97;;;2.77;;
14611;SDS011;7392;52.078;11.650;2023-06-22T02:43:57;3.57;;;3.30;;
14611;SDS011;7392;52.078;11.650;2023-06-22T02:46:25;3.30;;;3.10;;
14611;SDS011;7392;52.078;11.650;2023-06-22T02:48:53;3.27;;;3.07;;
14611;SDS011;7392;52.078;11.650;2023-06-22T02:51:22;3.00;;;2.80;;
14611;SDS011;7392;52.078;11.650;2023-06-22T02:53:49;2.80;;;2.60;;
14611;SDS011;7392;52.078;11.650;2023-06-22T02:56:19;2.90;;;2.70;;
14611;SDS011;7392;52.078;11.650;2023-06-22T02:58:54;2.97;;;2.53;;
14611;SDS011;7392;52.078;11.650;2023-06-22T03:01:30;3.00;;;2.80;;
14611;SDS011;7392;52.078;11.650;2023-06-22T03:04:04;3.17;;;2.87;;
14611;SDS011;7392;52.078;11.650;2023-06-22T03:06:33;2.90;;;2.70;;
14611;SDS011;7392;52.078;11.650;2023-06-22T03:09:02;2.90;;;2.70;;
14611;SDS011;7392;52.078;11.650;2023-06-22T03:11:33;3.13;;;2.93;;
14611;SDS011;7392;52.078;11.650;2023-06-22T03:14:01;3.50;;;3.20;;
14611;SDS011;7392;52.078;11.650;2023-06-22T03:16:29;3.47;;;3.07;;
14611;SDS011;7392;52.078;11.650;2023-06-22T03:18:57;3.03;;;2.83;;
14611;SDS011;7392;52.078;11.650;2023-06-22T03:21:26;3.20;;;3.00;;
14611;SDS011;7392;52.078;11.650;2023-06-22T03:23:56;3.57;;;3.37;;
14611;SDS011;7392;52.078;11.650;2023-06-22T03:26:24;3.40;;;3.20;;
14611;SDS011;7392;52.078;11.650;2023-06-22T03:28:53;3.10;;;2.90;;
14611;SDS011;7392;52.078;11.650;2023-06-22T03:31:21;3.60;;;3.30;;
14611;SDS011;7392;52.078;11.650;2023-06-22T03:33:48;3.27;;;3.07;;
14611;SDS011;7392;52.078;11.650;2023-06-22T03:36:17;3.23;;;3.03;;
14611;SDS011;7392;52.078;11.650;2023-06-22T03:38:46;3.00;;;2.80;;
14611;SDS011;7392;52.078;11.650;2023-06-22T03:41:15;3.10;;;2.90;;
14611;SDS011;7392;52.078;11.650;2023-06-22T03:43:43;3.47;;;3.27;;
14611;SDS011;7392;52.078;11.650;2023-06-22T03:46:11;3.13;;;2.93;;
14611;SDS011;7392;52.078;11.650;2023-06-22T03:48:39;3.50;;;3.20;;
14611;SDS011;7392;52.078;11.650;2023-06-22T03:51:06;3.73;;;3.43;;
14611;SDS011;7392;52.078;11.650;2023-06-22T03:53:34;3.23;;;3.03;;
14611;SDS011;7392;52.078;11.650;2023-06-22T03:56:01;3.17;;;2.97;;
14611;SDS011;7392;52.078;11.650;2023-06-22T03:58:30;3.27;;;2.97;;
14611;SDS011;7392;52.078;11.650;2023-06-22T04:00:59;3.87;;;3.07;;
14611;SDS011;7392;52.078;11.650;2023-06-22T04:03:27;3.40;;;3.20;;
14611;SDS011;7392;52.078;11.650;2023-06-22T04:05:55;2.83;;;2.63;;
14611;SDS011;7392;52.078;11.650;2023-06-22T04:08:22;3.50;;;3.20;;
14611;SDS011;7392;52.078;11.650;2023-06-22T04:10:50;3.30;;;3.10;;
14611;SDS011;7392;52.078;11.650;2023-06-22T04:13:17;3.70;;;3.40;;
14611;SDS011;7392;52.078;11.650;2023-06-22T04:15:47;3.60;;;3.30;;
14611;SDS011;7392;52.078;11.650;2023-06-22T04:18:14;3.30;;;3.10;;
14611;SDS011;7392;52.078;11.650;2023-06-22T04:20:42;3.00;;;2.80;;
14611;SDS011;7392;52.078;11.650;2023-06-22T04:23:13;3.17;;;2.97;;
14611;SDS011;7392;52.078;11.650;2023-06-22T04:25:41;3.23;;;3.03;;
14611;SDS011;7392;52.078;11.650;2023-06-22T04:28:09;3.30;;;3.00;;
14611;SDS011;7392;52.078;11.650;2023-06-22T04:30:38;3.17;;;2.97;;
14611;SDS011;7392;52.078;11.650;2023-06-22T04:33:14;3.03;;;2.73;;
14611;SDS011;7392;52.078;11.650;2023-06-22T04:35:44;3.27;;;3.07;;
14611;SDS011;7392;52.078;11.650;2023-06-22T04:38:12;3.50;;;3.00;;
14611;SDS011;7392;52.078;11.650;2023-06-22T04:40:40;2.93;;;2.73;;
14611;SDS011;7392;52.078;11.650;2023-06-22T04:43:08;3.07;;;2.87;;
14611;SDS011;7392;52.078;11.650;2023-06-22T04:45:45;2.90;;;2.70;;
14611;SDS011;7392;52.078;11.650;2023-06-22T04:48:33;2.80;;;2.60;;
14611;SDS011;7392;52.078;11.650;2023-06-22T04:51:01;4.00;;;3.70;;
14611;SDS011;7392;52.078;11.650;2023-06-22T04:53:31;3.57;;;3.33;;
14611;SDS011;7392;52.078;11.650;2023-06-22T04:55:59;3.43;;;3.13;;
14611;SDS011;7392;52.078;11.650;2023-06-22T04:58:26;3.33;;;3.03;;
14611;SDS011;7392;52.078;11.650;2023-06-22T05:00:55;3.20;;;3.00;;
14611;SDS011;7392;52.078;11.650;2023-06-22T05:03:24;3.00;;;2.80;;
14611;SDS011;7392;52.078;11.650;2023-06-22T05:05:54;3.30;;;3.10;;
14611;SDS011;7392;52.078;11.650;2023-06-22T05:08:22;3.33;;;3.03;;
14611;SDS011;7392;52.078;11.650;2023-06-22T05:10:53;2.97;;;2.77;;
14611;SDS011;7392;52.078;11.650;2023-06-22T05:13:30;2.70;;;2.50;;
14611;SDS011;7392;52.078;11.650;2023-06-22T05:15:58;2.93;;;2.70;;
14611;SDS011;7392;52.078;11.650;2023-06-22T05:18:29;3.10;;;2.90;;
14611;SDS011;7392;52.078;11.650;2023-06-22T05:20:58;3.40;;;3.10;;
14611;SDS011;7392;52.078;11.650;2023-06-22T05:23:26;3.47;;;3.17;;
14611;SDS011;7392;52.078;11.650;2023-06-22T05:25:54;3.03;;;2.83;;
14611;SDS011;7392;52.078;11.650;2023-06-22T05:28:24;3.03;;;2.83;;
14611;SDS011;7392;52.078;11.650;2023-06-22T05:30:52;3.27;;;2.97;;
14611;SDS011;7392;52.078;11.650;2023-06-22T05:33:19;3.10;;;2.90;;
14611;SDS011;7392;52.078;11.650;2023-06-22T05:35:47;3.13;;;2.93;;
14611;SDS011;7392;52.078;11.650;2023-06-22T05:38:16;3.33;;;3.10;;
14611;SDS011;7392;52.078;11.650;2023-06-22T05:40:44;3.30;;;3.10;;
14611;SDS011;7392;52.078;11.650;2023-06-22T05:43:11;3.20;;;3.00;;
14611;SDS011;7392;52.078;11.650;2023-06-22T05:45:39;3.53;;;3.23;;
14611;SDS011;7392;52.078;11.650;2023-06-22T05:48:06;2.90;;;2.70;;
14611;SDS011;7392;52.078;11.650;2023-06-22T05:50:34;3.30;;;3.00;;
14611;SDS011;7392;52.078;11.650;2023-06-22T05:53:04;3.30;;;3.10;;
14611;SDS011;7392;52.078;11.650;2023-06-22T05:55:34;3.50;;;3.30;;
14611;SDS011;7392;52.078;11.650;2023-06-22T05:58:02;3.40;;;3.10;;
14611;SDS011;7392;52.078;11.650;2023-06-22T06:00:30;3.50;;;3.20;;
14611;SDS011;7392;52.078;11.650;2023-06-22T06:02:59;3.60;;;3.30;;
14611;SDS011;7392;52.078;11.650;2023-06-22T06:05:30;4.03;;;3.73;;
14611;SDS011;7392;52.078;11.650;2023-06-22T06:07:58;4.00;;;3.70;;
14611;SDS011;7392;52.078;11.650;2023-06-22T06:10:26;4.27;;;3.97;;
14611;SDS011;7392;52.078;11.650;2023-06-22T06:12:57;3.70;;;3.40;;
14611;SDS011;7392;52.078;11.650;2023-06-22T06:15:25;4.17;;;3.87;;
14611;SDS011;7392;52.078;11.650;2023-06-22T06:17:53;4.10;;;3.80;;
14611;SDS011;7392;52.078;11.650;2023-06-22T06:20:22;4.37;;;3.80;;
14611;SDS011;7392;52.078;11.650;2023-06-22T06:22:51;3.80;;;3.50;;
14611;SDS011;7392;52.078;11.650;2023-06-22T06:25:18;3.80;;;3.50;;
14611;SDS011;7392;52.078;11.650;2023-06-22T06:27:48;3.97;;;3.67;;
14611;SDS011;7392;52.078;11.650;2023-06-22T06:30:18;3.90;;;3.60;;
14611;SDS011;7392;52.078;11.650;2023-06-22T06:32:46;3.42;;;3.22;;
14611;SDS011;7392;52.078;11.650;2023-06-22T06:35:14;3.70;;;3.40;;
14611;SDS011;7392;52.078;11.650;2023-06-22T06:37:43;3.73;;;3.37;;
14611;SDS011;7392;52.078;11.650;2023-06-22T06:40:12;3.70;;;3.40;;
14611;SDS011;7392;52.078;11.650;2023-06-22T06:42:41;3.77;;;3.47;;
14611;SDS011;7392;52.078;11.650;2023-06-22T06:45:11;3.40;;;3.10;;
14611;SDS011;7392;52.078;11.650;2023-06-22T06:47:41;3.67;;;3.40;;
14611;SDS011;7392;52.078;11.650;2023-06-22T06:50:09;3.73;;;3.43;;
14611;SDS011;7392;52.078;11.650;2023-06-22T06:52:37;3.70;;;3.40;;
14611;SDS011;7392;52.078;11.650;2023-06-22T06:55:05;4.10;;;3.80;;
14611;SDS011;7392;52.078;11.650;2023-06-22T06:57:35;4.60;;;3.83;;
14611;SDS011;7392;52.078;11.650;2023-06-22T07:00:04;4.45;;;4.10;;
14611;SDS011;7392;52.078;11.650;2023-06-22T07:02:35;4.30;;;4.00;;
14611;SDS011;7392;52.078;11.650;2023-06-22T07:05:05;4.80;;;4.40;;
14611;SDS011;7392;52.078;11.650;2023-06-22T07:07:33;3.70;;;3.50;;
14611;SDS011;7392;52.078;11.650;2023-06-22T07:10:04;3.63;;;3.38;;
14611;SDS011;7392;52.078;11.650;2023-06-22T07:12:32;4.80;;;4.40;;
14611;SDS011;7392;52.078;11.650;2023-06-22T07:15:02;4.60;;;4.30;;
14611;SDS011;7392;52.078;11.650;2023-06-22T07:17:31;4.70;;;4.30;;
14611;SDS011;7392;52.078;11.650;2023-06-22T07:19:59;4.90;;;4.57;;
14611;SDS011;7392;52.078;11.650;2023-06-22T07:22:28;5.35;;;4.95;;
14611;SDS011;7392;52.078;11.650;2023-06-22T07:24:55;5.25;;;4.85;;
14611;SDS011;7392;52.078;11.650;2023-06-22T07:27:23;6.20;;;5.70;;
14611;SDS011;7392;52.078;11.650;2023-06-22T07:29:51;6.53;;;5.97;;
14611;SDS011;7392;52.078;11.650;2023-06-22T07:32:19;6.95;;;6.45;;
14611;SDS011;7392;52.078;11.650;2023-06-22T07:34:46;6.97;;;6.47;;
14611;SDS011;7392;52.078;11.650;2023-06-22T07:37:14;6.78;;;6.28;;
14611;SDS011;7392;52.078;11.650;2023-06-22T07:39:43;7.28;;;6.65;;
14611;SDS011;7392;52.078;11.650;2023-06-22T07:42:10;6.72;;;6.22;;
14611;SDS011;7392;52.078;11.650;2023-06-22T07:44:38;7.18;;;6.68;;
14611;SDS011;7392;52.078;11.650;2023-06-22T07:47:06;6.97;;;6.40;;
14611;SDS011;7392;52.078;11.650;2023-06-22T07:49:33;6.60;;;6.10;;
14611;SDS011;7392;52.078;11.650;2023-06-22T07:52:01;6.88;;;6.38;;
14611;SDS011;7392;52.078;11.650;2023-06-22T07:54:32;8.07;;;7.47;;
14611;SDS011;7392;52.078;11.650;2023-06-22T07:57:01;8.65;;;7.95;;
14611;SDS011;7392;52.078;11.650;2023-06-22T07:59:28;9.13;;;8.27;;
14611;SDS011;7392;52.078;11.650;2023-06-22T08:01:56;8.65;;;7.95;;
14611;SDS011;7392;52.078;11.650;2023-06-22T08:04:24;7.97;;;7.38;;
14611;SDS011;7392;52.078;11.650;2023-06-22T08:06:53;8.57;;;7.88;;
14611;SDS011;7392;52.078;11.650;2023-06-22T08:09:21;8.50;;;7.70;;
14611;SDS011;7392;52.078;11.650;2023-06-22T08:11:48;8.63;;;7.97;;
14611;SDS011;7392;52.078;11.650;2023-06-22T08:14:17;8.73;;;8.02;;
14611;SDS011;7392;52.078;11.650;2023-06-22T08:16:45;8.57;;;7.78;;
14611;SDS011;7392;52.078;11.650;2023-06-22T08:19:13;8.57;;;7.88;;
14611;SDS011;7392;52.078;11.650;2023-06-22T08:21:40;8.10;;;7.40;;
14611;SDS011;7392;52.078;11.650;2023-06-22T08:24:08;8.25;;;7.55;;
14611;SDS011;7392;52.078;11.650;2023-06-22T08:26:35;8.98;;;8.18;;
14611;SDS011;7392;52.078;11.650;2023-06-22T08:29:03;8.60;;;7.93;;
14611;SDS011;7392;52.078;11.650;2023-06-22T08:31:32;9.00;;;8.07;;
14611;SDS011;7392;52.078;11.650;2023-06-22T08:34:01;9.38;;;8.60;;
14611;SDS011;7392;52.078;11.650;2023-06-22T08:36:28;9.02;;;7.85;;
14611;SDS011;7392;52.078;11.650;2023-06-22T08:38:58;9.00;;;8.20;;
14611;SDS011;7392;52.078;11.650;2023-06-22T08:41:27;8.77;;;7.88;;
14611;SDS011;7392;52.078;11.650;2023-06-22T08:43:55;9.43;;;7.97;;
14611;SDS011;7392;52.078;11.650;2023-06-22T08:46:23;9.00;;;8.18;;
14611;SDS011;7392;52.078;11.650;2023-06-22T08:48:59;8.82;;;8.13;;
14611;SDS011;7392;52.078;11.650;2023-06-22T08:51:27;9.43;;;8.63;;
14611;SDS011;7392;52.078;11.650;2023-06-22T08:53:55;8.80;;;8.02;;
14611;SDS011;7392;52.078;11.650;2023-06-22T08:56:23;8.77;;;7.97;;
14611;SDS011;7392;52.078;11.650;2023-06-22T08:58:50;9.05;;;8.27;;
14611;SDS011;7392;52.078;11.650;2023-06-22T09:01:18;8.52;;;7.82;;
14611;SDS011;7392;52.078;11.650;2023-06-22T09:03:45;9.43;;;8.60;;
14611;SDS011;7392;52.078;11.650;2023-06-22T09:06:22;7.90;;;7.10;;
14611;SDS011;7392;52.078;11.650;2023-06-22T09:08:50;8.10;;;7.40;;
14611;SDS011;7392;52.078;11.650;2023-06-22T09:11:18;8.98;;;8.27;;
14611;SDS011;7392;52.078;11.650;2023-06-22T09:13:45;9.63;;;8.93;;
14611;SDS011;7392;52.078;11.650;2023-06-22T09:16:13;8.77;;;8.07;;
14611;SDS011;7392;52.078;11.650;2023-06-22T09:18:41;8.43;;;7.72;;
14611;SDS011;7392;52.078;11.650;2023-06-22T09:21:08;8.90;;;7.65;;
14611;SDS011;7392;52.078;11.650;2023-06-22T09:23:37;7.57;;;6.85;;
14611;SDS011;7392;52.078;11.650;2023-06-22T09:26:05;8.07;;;7.40;;
14611;SDS011;7392;52.078;11.650;2023-06-22T09:28:33;7.13;;;6.63;;
14611;SDS011;7392;52.078;11.650;2023-06-22T09:31:00;7.20;;;6.65;;
14611;SDS011;7392;52.078;11.650;2023-06-22T09:33:28;7.55;;;6.95;;
14611;SDS011;7392;52.078;11.650;2023-06-22T09:35:55;8.80;;;8.10;;
14611;SDS011;7392;52.078;11.650;2023-06-22T09:38:23;7.25;;;6.75;;
14611;SDS011;7392;52.078;11.650;2023-06-22T09:40:52;8.65;;;7.95;;
14611;SDS011;7392;52.078;11.650;2023-06-22T09:43:20;7.78;;;7.18;;
14611;SDS011;7392;52.078;11.650;2023-06-22T09:45:48;7.30;;;6.70;;
14611;SDS011;7392;52.078;11.650;2023-06-22T09:48:15;7.05;;;6.40;;
14611;SDS011;7392;52.078;11.650;2023-06-22T09:50:43;7.95;;;7.30;;
14611;SDS011;7392;52.078;11.650;2023-06-22T09:53:11;7.90;;;7.30;;
14611;SDS011;7392;52.078;11.650;2023-06-22T09:55:39;7.55;;;7.05;;
14611;SDS011;7392;52.078;11.650;2023-06-22T09:58:08;8.52;;;7.82;;
14611;SDS011;7392;52.078;11.650;2023-06-22T10:00:36;8.60;;;7.90;;
14611;SDS011;7392;52.078;11.650;2023-06-22T10:03:04;8.27;;;7.65;;
14611;SDS011;7392;52.078;11.650;2023-06-22T10:05:32;8.13;;;7.53;;
14611;SDS011;7392;52.078;11.650;2023-06-22T10:08:00;8.30;;;7.60;;
14611;SDS011;7392;52.078;11.650;2023-06-22T10:10:27;10.00;;;9.00;;
14611;SDS011;7392;52.078;11.650;2023-06-22T10:12:55;9.32;;;8.55;;
14611;SDS011;7392;52.078;11.650;2023-06-22T10:15:25;9.48;;;8.65;;
14611;SDS011;7392;52.078;11.650;2023-06-22T10:17:54;8.15;;;7.50;;
14611;SDS011;7392;52.078;11.650;2023-06-22T10:20:22;8.20;;;7.60;;
14611;SDS011;7392;52.078;11.650;2023-06-22T10:22:50;7.22;;;6.72;;
14611;SDS011;7392;52.078;11.650;2023-06-22T10:25:17;7.95;;;7.35;;
14611;SDS011;7392;52.078;11.650;2023-06-22T10:27:45;8.30;;;7.70;;
14611;SDS011;7392;52.078;11.650;2023-06-22T10:30:13;8.10;;;7.45;;
14611;SDS011;7392;52.078;11.650;2023-06-22T10:32:43;7.82;;;7.22;;
14611;SDS011;7392;52.078;11.650;2023-06-22T10:35:10;7.57;;;6.97;;
14611;SDS011;7392;52.078;11.650;2023-06-22T10:37:40;6.72;;;6.22;;
14611;SDS011;7392;52.078;11.650;2023-06-22T10:40:09;7.00;;;6.38;;
14611;SDS011;7392;52.078;11.650;2023-06-22T10:42:38;7.93;;;7.25;;
14611;SDS011;7392;52.078;11.650;2023-06-22T10:45:07;7.88;;;7.28;;
14611;SDS011;7392;52.078;11.650;2023-06-22T10:47:35;7.95;;;7.35;;
14611;SDS011;7392;52.078;11.650;2023-06-22T10:50:05;8.07;;;7.47;;
14611;SDS011;7392;52.078;11.650;2023-06-22T10:52:34;7.22;;;6.63;;
14611;SDS011;7392;52.078;11.650;2023-06-22T10:55:01;8.45;;;7.68;;
14611;SDS011;7392;52.078;11.650;2023-06-22T10:57:29;7.70;;;7.10;;
14611;SDS011;7392;52.078;11.650;2023-06-22T10:59:56;7.82;;;7.22;;
14611;SDS011;7392;52.078;11.650;2023-06-22T11:02:24;7.15;;;6.65;;
14611;SDS011;7392;52.078;11.650;2023-06-22T11:04:54;6.57;;;6.00;;
14611;SDS011;7392;52.078;11.650;2023-06-22T11:07:23;6.32;;;5.82;;
14611;SDS011;7392;52.078;11.650;2023-06-22T11:09:51;5.80;;;5.40;;
14611;SDS011;7392;52.078;11.650;2023-06-22T11:12:18;5.80;;;5.40;;
14611;SDS011;7392;52.078;11.650;2023-06-22T11:14:46;5.47;;;5.07;;
14611;SDS011;7392;52.078;11.650;2023-06-22T11:17:14;5.85;;;5.45;;
14611;SDS011;7392;52.078;11.650;2023-06-22T11:19:41;6.40;;;5.90;;
14611;SDS011;7392;52.078;11.650;2023-06-22T11:22:09;8.07;;;7.47;;
14611;SDS011;7392;52.078;11.650;2023-06-22T11:24:38;7.70;;;7.18;;
14611;SDS011;7392;52.078;11.650;2023-06-22T11:27:05;7.38;;;6.78;;
14611;SDS011;7392;52.078;11.650;2023-06-22T11:29:33;6.97;;;6.43;;
14611;SDS011;7392;52.078;11.650;2023-06-22T11:32:04;6.47;;;5.97;;
14611;SDS011;7392;52.078;11.650;2023-06-22T11:34:33;6.63;;;6.10;;
14611;SDS011;7392;52.078;11.650;2023-06-22T11:37:01;8.07;;;7.40;;
14611;SDS011;7392;52.078;11.650;2023-06-22T11:39:28;7.97;;;7.38;;
14611;SDS011;7392;52.078;11.650;2023-06-22T11:42:09;6.85;;;6.35;;
14611;SDS011;7392;52.078;11.650;2023-06-22T11:44:37;6.93;;;6.43;;
14611;SDS011;7392;52.078;11.650;2023-06-22T11:47:05;6.95;;;6.45;;
14611;SDS011;7392;52.078;11.650;2023-06-22T11:49:33;8.85;;;8.05;;
14611;SDS011;7392;52.078;11.650;2023-06-22T11:52:00;7.80;;;7.20;;
14611;SDS011;7392;52.078;11.650;2023-06-22T11:54:28;7.47;;;6.88;;
14611;SDS011;7392;52.078;11.650;2023-06-22T11:56:56;7.30;;;6.72;;
14611;SDS011;7392;52.078;11.650;2023-06-22T11:59:24;6.93;;;6.43;;
14611;SDS011;7392;52.078;11.650;2023-06-22T12:01:52;7.53;;;6.82;;
14611;SDS011;7392;52.078;11.650;2023-06-22T12:04:20;7.63;;;7.10;;
14611;SDS011;7392;52.078;11.650;2023-06-22T12:06:47;7.20;;;6.68;;
14611;SDS011;7392;52.078;11.650;2023-06-22T12:09:15;6.03;;;5.63;;
14611;SDS011;7392;52.078;11.650;2023-06-22T12:11:42;6.38;;;5.88;;
14611;SDS011;7392;52.078;11.650;2023-06-22T12:14:10;6.72;;;6.22;;
14611;SDS011;7392;52.078;11.650;2023-06-22T12:16:39;7.32;;;6.72;;
14611;SDS011;7392;52.078;11.650;2023-06-22T12:19:07;6.55;;;6.07;;
14611;SDS011;7392;52.078;11.650;2023-06-22T12:21:34;7.10;;;6.60;;
14611;SDS011;7392;52.078;11.650;2023-06-22T12:24:05;7.25;;;6.03;;
14611;SDS011;7392;52.078;11.650;2023-06-22T12:26:33;6.72;;;6.22;;
14611;SDS011;7392;52.078;11.650;2023-06-22T12:29:00;6.88;;;6.38;;
14611;SDS011;7392;52.078;11.650;2023-06-22T12:31:28;6.45;;;5.95;;
14611;SDS011;7392;52.078;11.650;2023-06-22T12:33:57;6.80;;;6.28;;
14611;SDS011;7392;52.078;11.650;2023-06-22T12:36:25;6.10;;;5.65;;
14611;SDS011;7392;52.078;11.650;2023-06-22T12:38:52;5.85;;;5.45;;
14611;SDS011;7392;52.078;11.650;2023-06-22T12:41:21;6.70;;;6.20;;
14611;SDS011;7392;52.078;11.650;2023-06-22T12:43:49;7.25;;;6.75;;
14611;SDS011;7392;52.078;11.650;2023-06-22T12:46:17;6.22;;;5.82;;
14611;SDS011;7392;52.078;11.650;2023-06-22T12:48:44;6.22;;;5.82;;
14611;SDS011;7392;52.078;11.650;2023-06-22T12:51:19;7.20;;;6.60;;
14611;SDS011;7392;52.078;11.650;2023-06-22T12:53:48;7.90;;;7.30;;
14611;SDS011;7392;52.078;11.650;2023-06-22T12:56:15;7.40;;;6.80;;
14611;SDS011;7392;52.078;11.650;2023-06-22T12:58:43;8.90;;;8.20;;
14611;SDS011;7392;52.078;11.650;2023-06-22T13:01:10;8.32;;;7.63;;
14611;SDS011;7392;52.078;11.650;2023-06-22T13:03:38;6.93;;;6.43;;
14611;SDS011;7392;52.078;11.650;2023-06-22T13:06:06;6.32;;;5.93;;
14611;SDS011;7392;52.078;11.650;2023-06-22T13:08:35;6.78;;;6.28;;
14611;SDS011;7392;52.078;11.650;2023-06-22T13:11:22;6.97;;;6.47;;
14611;SDS011;7392;52.078;11.650;2023-06-22T13:13:50;6.68;;;6.25;;
14611;SDS011;7392;52.078;11.650;2023-06-22T13:16:18;6.85;;;6.35;;
14611;SDS011;7392;52.078;11.650;2023-06-22T13:18:45;6.47;;;5.97;;
14611;SDS011;7392;52.078;11.650;2023-06-22T13:21:13;6.47;;;5.88;;
14611;SDS011;7392;52.078;11.650;2023-06-22T13:23:42;6.75;;;6.20;;
14611;SDS011;7392;52.078;11.650;2023-06-22T13:26:09;6.13;;;5.63;;
14611;SDS011;7392;52.078;11.650;2023-06-22T13:28:37;5.80;;;5.40;;
14611;SDS011;7392;52.078;11.650;2023-06-22T13:31:05;6.45;;;5.95;;
14611;SDS011;7392;52.078;11.650;2023-06-22T13:33:33;5.97;;;5.57;;
14611;SDS011;7392;52.078;11.650;2023-06-22T13:36:01;5.82;;;5.32;;
14611;SDS011;7392;52.078;11.650;2023-06-22T13:38:29;6.10;;;5.70;;
14611;SDS011;7392;52.078;11.650;2023-06-22T13:40:59;5.90;;;5.50;;
14611;SDS011;7392;52.078;11.650;2023-06-22T13:43:27;6.50;;;6.00;;
14611;SDS011;7392;52.078;11.650;2023-06-22T13:45:55;6.63;;;6.13;;
14611;SDS011;7392;52.078;11.650;2023-06-22T13:48:22;7.38;;;6.78;;
14611;SDS011;7392;52.078;11.650;2023-06-22T13:50:52;6.40;;;6.00;;
14611;SDS011;7392;52.078;11.650;2023-06-22T13:53:19;6.88;;;6.38;;
14611;SDS011;7392;52.078;11.650;2023-06-22T13:55:47;6.18;;;5.78;;
14611;SDS011;7392;52.078;11.650;2023-06-22T13:58:16;6.30;;;5.90;;
14611;SDS011;7392;52.078;11.650;2023-06-22T14:00:46;5.90;;;5.50;;
14611;SDS011;7392;52.078;11.650;2023-06-22T14:03:15;5.80;;;5.32;;
14611;SDS011;7392;52.078;11.650;2023-06-22T14:05:43;5.80;;;5.40;;
14611;SDS011;7392;52.078;11.650;2023-06-22T14:08:11;5.88;;;5.45;;
14611;SDS011;7392;52.078;11.650;2023-06-22T14:10:58;5.40;;;5.07;;
14611;SDS011;7392;52.078;11.650;2023-06-22T14:13:28;6.00;;;5.60;;
14611;SDS011;7392;52.078;11.650;2023-06-22T14:15:55;6.03;;;5.63;;
14611;SDS011;7392;52.078;11.650;2023-06-22T14:18:23;6.15;;;5.75;;
14611;SDS011;7392;52.078;11.650;2023-06-22T14:20:51;6.80;;;6.30;;
14611;SDS011;7392;52.078;11.650;2023-06-22T14:23:18;6.30;;;5.90;;
14611;SDS011;7392;52.078;11.650;2023-06-22T14:25:46;6.78;;;6.38;;
14611;SDS011;7392;52.078;11.650;2023-06-22T14:28:14;6.22;;;5.82;;
14611;SDS011;7392;52.078;11.650;2023-06-22T14:30:44;6.45;;;6.05;;
14611;SDS011;7392;52.078;11.650;2023-06-22T14:33:11;6.43;;;5.93;;
14611;SDS011;7392;52.078;11.650;2023-06-22T14:35:39;6.63;;;6.13;;
14611;SDS011;7392;52.078;11.650;2023-06-22T14:38:07;5.88;;;5.47;;
14611;SDS011;7392;52.078;11.650;2023-06-22T14:40:35;6.53;;;6.03;;
14611;SDS011;7392;52.078;11.650;2023-06-22T14:43:22;7.30;;;6.70;;
14611;SDS011;7392;52.078;11.650;2023-06-22T14:45:52;6.20;;;5.70;;
14611;SDS011;7392;52.078;11.650;2023-06-22T14:48:20;6.32;;;5.82;;
14611;SDS011;7392;52.078;11.650;2023-06-22T14:50:48;6.22;;;5.72;;
14611;SDS011;7392;52.078;11.650;2023-06-22T14:53:16;6.07;;;5.68;;
14611;SDS011;7392;52.078;11.650;2023-06-22T14:55:43;6.88;;;6.38;;
14611;SDS011;7392;52.078;11.650;2023-06-22T14:58:11;6.50;;;6.00;;